sensor_id;sensor_type;location;lat;lon;timestamp;P1;durP1;ratioP1;P2;durP2;ratioP2
10657;SDS011;5377;43.276;26.930;2024-03-02T00:01:14;16.00;;;9.27;;
10657;SDS011;5377;43.276;26.930;2024-03-02T00:03:42;20.33;;;9.67;;
10657;SDS011;5377;43.276;26.930;2024-03-02T00:06:08;20.23;;;9.17;;
10657;SDS011;5377;43.276;26.930;2024-03-02T00:08:35;15.50;;;10.80;;
10657;SDS011;5377;43.276;26.930;2024-03-02T00:11:03;19.63;;;9.00;;
10657;SDS011;5377;43.276;26.930;2024-03-02T00:13:30;21.20;;;10.07;;
10657;SDS011;5377;43.276;26.930;2024-03-02T00:15:57;18.40;;;10.10;;
10657;SDS011;5377;43.276;26.930;2024-03-02T00:18:25;20.87;;;10.33;;
10657;SDS011;5377;43.276;26.930;2024-03-02T00:20:52;20.63;;;8.87;;
10657;SDS011;5377;43.276;26.930;2024-03-02T00:23:19;19.97;;;8.80;;
10657;SDS011;5377;43.276;26.930;2024-03-02T00:25:47;21.13;;;9.13;;
10657;SDS011;5377;43.276;26.930;2024-03-02T00:28:16;18.57;;;9.73;;
10657;SDS011;5377;43.276;26.930;2024-03-02T00:33:32;17.33;;;9.50;;
10657;SDS011;5377;43.276;26.930;2024-03-02T00:35:58;19.83;;;10.37;;
10657;SDS011;5377;43.276;26.930;2024-03-02T00:38:26;17.63;;;9.63;;
10657;SDS011;5377;43.276;26.930;2024-03-02T00:40:52;22.83;;;10.00;;
10657;SDS011;5377;43.276;26.930;2024-03-02T00:46:05;20.20;;;10.00;;
10657;SDS011;5377;43.276;26.930;2024-03-02T00:48:32;21.97;;;11.37;;
10657;SDS011;5377;43.276;26.930;2024-03-02T00:51:01;22.93;;;12.23;;
10657;SDS011;5377;43.276;26.930;2024-03-02T00:53:28;23.63;;;12.90;;
10657;SDS011;5377;43.276;26.930;2024-03-02T00:55:55;19.43;;;9.93;;
10657;SDS011;5377;43.276;26.930;2024-03-02T00:58:22;16.75;;;9.60;;
10657;SDS011;5377;43.276;26.930;2024-03-02T01:00:48;21.17;;;11.23;;
10657;SDS011;5377;43.276;26.930;2024-03-02T01:03:16;18.30;;;10.33;;
10657;SDS011;5377;43.276;26.930;2024-03-02T01:05:44;16.37;;;10.50;;
10657;SDS011;5377;43.276;26.930;2024-03-02T01:08:10;21.47;;;11.57;;
10657;SDS011;5377;43.276;26.930;2024-03-02T01:10:37;22.90;;;10.10;;
10657;SDS011;5377;43.276;26.930;2024-03-02T01:13:04;21.03;;;10.90;;
10657;SDS011;5377;43.276;26.930;2024-03-02T01:15:30;23.77;;;12.13;;
10657;SDS011;5377;43.276;26.930;2024-03-02T01:17:57;17.47;;;10.77;;
10657;SDS011;5377;43.276;26.930;2024-03-02T01:20:25;22.67;;;11.80;;
10657;SDS011;5377;43.276;26.930;2024-03-02T01:22:52;22.80;;;10.27;;
10657;SDS011;5377;43.276;26.930;2024-03-02T01:25:19;23.27;;;11.17;;
10657;SDS011;5377;43.276;26.930;2024-03-02T01:27:45;23.30;;;11.50;;
10657;SDS011;5377;43.276;26.930;2024-03-02T01:30:12;22.20;;;11.07;;
10657;SDS011;5377;43.276;26.930;2024-03-02T01:32:38;21.10;;;11.70;;
10657;SDS011;5377;43.276;26.930;2024-03-02T01:35:05;25.40;;;12.27;;
10657;SDS011;5377;43.276;26.930;2024-03-02T01:37:34;22.17;;;11.90;;
10657;SDS011;5377;43.276;26.930;2024-03-02T01:40:00;20.90;;;11.23;;
10657;SDS011;5377;43.276;26.930;2024-03-02T01:42:27;26.60;;;12.53;;
10657;SDS011;5377;43.276;26.930;2024-03-02T01:44:54;22.60;;;12.40;;
10657;SDS011;5377;43.276;26.930;2024-03-02T01:47:20;24.70;;;12.47;;
10657;SDS011;5377;43.276;26.930;2024-03-02T01:49:47;23.10;;;12.13;;
10657;SDS011;5377;43.276;26.930;2024-03-02T01:52:14;19.27;;;10.50;;
10657;SDS011;5377;43.276;26.930;2024-03-02T01:54:42;19.60;;;11.77;;
10657;SDS011;5377;43.276;26.930;2024-03-02T01:57:09;18.70;;;11.33;;
10657;SDS011;5377;43.276;26.930;2024-03-02T01:59:36;20.57;;;10.33;;
10657;SDS011;5377;43.276;26.930;2024-03-02T02:02:02;19.40;;;10.10;;
10657;SDS011;5377;43.276;26.930;2024-03-02T02:04:28;22.03;;;10.80;;
10657;SDS011;5377;43.276;26.930;2024-03-02T02:06:55;27.27;;;11.97;;
10657;SDS011;5377;43.276;26.930;2024-03-02T02:09:22;18.87;;;10.50;;
10657;SDS011;5377;43.276;26.930;2024-03-02T02:11:51;25.43;;;11.20;;
10657;SDS011;5377;43.276;26.930;2024-03-02T02:14:18;18.00;;;9.70;;
10657;SDS011;5377;43.276;26.930;2024-03-02T02:16:44;17.00;;;10.80;;
10657;SDS011;5377;43.276;26.930;2024-03-02T02:19:11;23.60;;;12.80;;
10657;SDS011;5377;43.276;26.930;2024-03-02T02:21:39;20.90;;;11.50;;
10657;SDS011;5377;43.276;26.930;2024-03-02T02:24:08;22.93;;;10.27;;
10657;SDS011;5377;43.276;26.930;2024-03-02T02:26:34;21.63;;;10.77;;
10657;SDS011;5377;43.276;26.930;2024-03-02T02:29:01;19.53;;;10.53;;
10657;SDS011;5377;43.276;26.930;2024-03-02T02:31:30;18.70;;;10.77;;
10657;SDS011;5377;43.276;26.930;2024-03-02T02:34:02;21.97;;;12.23;;
10657;SDS011;5377;43.276;26.930;2024-03-02T02:36:28;21.70;;;11.43;;
10657;SDS011;5377;43.276;26.930;2024-03-02T02:38:56;28.57;;;12.63;;
10657;SDS011;5377;43.276;26.930;2024-03-02T02:41:23;21.83;;;12.50;;
10657;SDS011;5377;43.276;26.930;2024-03-02T02:43:50;24.70;;;12.10;;
10657;SDS011;5377;43.276;26.930;2024-03-02T02:46:16;25.07;;;12.63;;
10657;SDS011;5377;43.276;26.930;2024-03-02T02:48:43;22.73;;;14.03;;
10657;SDS011;5377;43.276;26.930;2024-03-02T02:51:10;28.10;;;13.60;;
10657;SDS011;5377;43.276;26.930;2024-03-02T02:53:36;23.10;;;13.53;;
10657;SDS011;5377;43.276;26.930;2024-03-02T02:56:06;23.63;;;14.10;;
10657;SDS011;5377;43.276;26.930;2024-03-02T02:58:33;25.47;;;13.63;;
10657;SDS011;5377;43.276;26.930;2024-03-02T03:00:59;21.47;;;12.90;;
10657;SDS011;5377;43.276;26.930;2024-03-02T03:03:26;24.93;;;13.03;;
10657;SDS011;5377;43.276;26.930;2024-03-02T03:05:53;25.20;;;13.57;;
10657;SDS011;5377;43.276;26.930;2024-03-02T03:08:19;31.53;;;14.23;;
10657;SDS011;5377;43.276;26.930;2024-03-02T03:10:45;27.80;;;15.30;;
10657;SDS011;5377;43.276;26.930;2024-03-02T03:13:13;23.37;;;14.43;;
10657;SDS011;5377;43.276;26.930;2024-03-02T03:15:40;29.77;;;13.30;;
10657;SDS011;5377;43.276;26.930;2024-03-02T03:18:06;18.97;;;13.83;;
10657;SDS011;5377;43.276;26.930;2024-03-02T03:20:35;19.67;;;11.80;;
10657;SDS011;5377;43.276;26.930;2024-03-02T03:23:02;28.93;;;12.97;;
10657;SDS011;5377;43.276;26.930;2024-03-02T03:25:29;24.50;;;11.90;;
10657;SDS011;5377;43.276;26.930;2024-03-02T03:27:55;18.90;;;11.60;;
10657;SDS011;5377;43.276;26.930;2024-03-02T03:30:23;20.90;;;12.53;;
10657;SDS011;5377;43.276;26.930;2024-03-02T03:32:50;19.97;;;10.83;;
10657;SDS011;5377;43.276;26.930;2024-03-02T03:35:16;25.07;;;11.67;;
10657;SDS011;5377;43.276;26.930;2024-03-02T03:37:43;27.57;;;12.97;;
10657;SDS011;5377;43.276;26.930;2024-03-02T03:40:10;22.50;;;11.63;;
10657;SDS011;5377;43.276;26.930;2024-03-02T03:42:37;24.30;;;11.77;;
10657;SDS011;5377;43.276;26.930;2024-03-02T03:45:04;25.73;;;12.40;;
10657;SDS011;5377;43.276;26.930;2024-03-02T03:47:32;21.40;;;10.60;;
10657;SDS011;5377;43.276;26.930;2024-03-02T03:49:59;20.30;;;9.60;;
10657;SDS011;5377;43.276;26.930;2024-03-02T03:52:25;23.57;;;10.10;;
10657;SDS011;5377;43.276;26.930;2024-03-02T03:54:52;18.47;;;9.93;;
10657;SDS011;5377;43.276;26.930;2024-03-02T03:57:18;16.83;;;7.90;;
10657;SDS011;5377;43.276;26.930;2024-03-02T03:59:45;23.33;;;9.73;;
10657;SDS011;5377;43.276;26.930;2024-03-02T04:02:12;16.43;;;9.20;;
10657;SDS011;5377;43.276;26.930;2024-03-02T04:04:42;18.03;;;9.37;;
10657;SDS011;5377;43.276;26.930;2024-03-02T04:07:09;17.23;;;8.43;;
10657;SDS011;5377;43.276;26.930;2024-03-02T04:09:35;18.27;;;9.93;;
10657;SDS011;5377;43.276;26.930;2024-03-02T04:12:02;17.30;;;8.77;;
10657;SDS011;5377;43.276;26.930;2024-03-02T04:14:29;24.37;;;11.07;;
10657;SDS011;5377;43.276;26.930;2024-03-02T04:16:55;22.60;;;10.30;;
10657;SDS011;5377;43.276;26.930;2024-03-02T04:19:22;17.43;;;10.07;;
10657;SDS011;5377;43.276;26.930;2024-03-02T04:21:49;24.07;;;9.70;;
10657;SDS011;5377;43.276;26.930;2024-03-02T04:24:16;19.97;;;9.53;;
10657;SDS011;5377;43.276;26.930;2024-03-02T04:26:42;19.60;;;9.03;;
10657;SDS011;5377;43.276;26.930;2024-03-02T04:29:09;17.13;;;11.03;;
10657;SDS011;5377;43.276;26.930;2024-03-02T04:31:35;22.20;;;10.33;;
10657;SDS011;5377;43.276;26.930;2024-03-02T04:34:02;19.63;;;10.90;;
10657;SDS011;5377;43.276;26.930;2024-03-02T04:36:28;21.27;;;11.60;;
10657;SDS011;5377;43.276;26.930;2024-03-02T04:38:56;18.63;;;10.63;;
10657;SDS011;5377;43.276;26.930;2024-03-02T04:41:23;16.33;;;10.20;;
10657;SDS011;5377;43.276;26.930;2024-03-02T04:43:49;19.90;;;10.50;;
10657;SDS011;5377;43.276;26.930;2024-03-02T04:46:16;20.00;;;11.03;;
10657;SDS011;5377;43.276;26.930;2024-03-02T04:48:42;23.73;;;13.23;;
10657;SDS011;5377;43.276;26.930;2024-03-02T04:51:09;20.97;;;11.70;;
10657;SDS011;5377;43.276;26.930;2024-03-02T04:53:36;20.37;;;11.30;;
10657;SDS011;5377;43.276;26.930;2024-03-02T04:56:05;22.80;;;12.07;;
10657;SDS011;5377;43.276;26.930;2024-03-02T04:59:04;22.80;;;11.90;;
10657;SDS011;5377;43.276;26.930;2024-03-02T05:01:31;20.73;;;11.57;;
10657;SDS011;5377;43.276;26.930;2024-03-02T05:03:57;21.80;;;10.70;;
10657;SDS011;5377;43.276;26.930;2024-03-02T05:06:24;26.47;;;12.70;;
10657;SDS011;5377;43.276;26.930;2024-03-02T05:08:50;21.30;;;12.47;;
10657;SDS011;5377;43.276;26.930;2024-03-02T05:11:18;27.30;;;12.70;;
10657;SDS011;5377;43.276;26.930;2024-03-02T05:14:02;28.97;;;13.00;;
10657;SDS011;5377;43.276;26.930;2024-03-02T05:16:29;31.37;;;14.50;;
10657;SDS011;5377;43.276;26.930;2024-03-02T05:18:56;25.23;;;14.27;;
10657;SDS011;5377;43.276;26.930;2024-03-02T05:21:22;28.73;;;15.67;;
10657;SDS011;5377;43.276;26.930;2024-03-02T05:23:49;21.63;;;13.80;;
10657;SDS011;5377;43.276;26.930;2024-03-02T05:26:15;25.67;;;13.73;;
10657;SDS011;5377;43.276;26.930;2024-03-02T05:28:43;26.00;;;14.57;;
10657;SDS011;5377;43.276;26.930;2024-03-02T05:31:10;23.83;;;14.63;;
10657;SDS011;5377;43.276;26.930;2024-03-02T05:33:37;24.30;;;13.57;;
10657;SDS011;5377;43.276;26.930;2024-03-02T05:36:04;24.00;;;13.33;;
10657;SDS011;5377;43.276;26.930;2024-03-02T05:38:30;30.60;;;14.77;;
10657;SDS011;5377;43.276;26.930;2024-03-02T05:40:57;27.10;;;13.03;;
10657;SDS011;5377;43.276;26.930;2024-03-02T05:43:23;28.75;;;14.95;;
10657;SDS011;5377;43.276;26.930;2024-03-02T05:45:51;22.27;;;12.43;;
10657;SDS011;5377;43.276;26.930;2024-03-02T05:48:18;16.47;;;11.13;;
10657;SDS011;5377;43.276;26.930;2024-03-02T05:50:44;22.77;;;12.30;;
10657;SDS011;5377;43.276;26.930;2024-03-02T05:53:11;22.80;;;10.63;;
10657;SDS011;5377;43.276;26.930;2024-03-02T05:55:37;17.97;;;9.87;;
10657;SDS011;5377;43.276;26.930;2024-03-02T05:58:04;24.00;;;11.40;;
10657;SDS011;5377;43.276;26.930;2024-03-02T06:00:47;18.60;;;10.30;;
10657;SDS011;5377;43.276;26.930;2024-03-02T06:03:15;17.90;;;10.40;;
10657;SDS011;5377;43.276;26.930;2024-03-02T06:05:42;21.90;;;11.93;;
10657;SDS011;5377;43.276;26.930;2024-03-02T06:08:08;17.53;;;10.40;;
10657;SDS011;5377;43.276;26.930;2024-03-02T06:10:35;25.33;;;12.30;;
10657;SDS011;5377;43.276;26.930;2024-03-02T06:13:01;16.07;;;10.40;;
10657;SDS011;5377;43.276;26.930;2024-03-02T06:15:28;15.73;;;10.17;;
10657;SDS011;5377;43.276;26.930;2024-03-02T06:17:54;21.83;;;11.03;;
10657;SDS011;5377;43.276;26.930;2024-03-02T06:20:22;20.43;;;9.23;;
10657;SDS011;5377;43.276;26.930;2024-03-02T06:22:49;18.33;;;9.40;;
10657;SDS011;5377;43.276;26.930;2024-03-02T06:25:15;19.13;;;9.80;;
10657;SDS011;5377;43.276;26.930;2024-03-02T06:27:42;24.67;;;10.70;;
10657;SDS011;5377;43.276;26.930;2024-03-02T06:30:09;18.20;;;10.47;;
10657;SDS011;5377;43.276;26.930;2024-03-02T06:32:35;23.70;;;10.63;;
10657;SDS011;5377;43.276;26.930;2024-03-02T06:35:02;19.50;;;10.20;;
10657;SDS011;5377;43.276;26.930;2024-03-02T06:37:31;22.57;;;10.10;;
10657;SDS011;5377;43.276;26.930;2024-03-02T06:39:57;23.25;;;10.75;;
10657;SDS011;5377;43.276;26.930;2024-03-02T06:42:24;18.00;;;9.90;;
10657;SDS011;5377;43.276;26.930;2024-03-02T06:44:50;19.37;;;9.67;;
10657;SDS011;5377;43.276;26.930;2024-03-02T06:47:17;23.07;;;10.63;;
10657;SDS011;5377;43.276;26.930;2024-03-02T06:49:45;19.65;;;10.90;;
10657;SDS011;5377;43.276;26.930;2024-03-02T06:52:11;28.85;;;13.18;;
10657;SDS011;5377;43.276;26.930;2024-03-02T06:54:39;25.40;;;11.52;;
10657;SDS011;5377;43.276;26.930;2024-03-02T06:57:06;22.83;;;11.47;;
10657;SDS011;5377;43.276;26.930;2024-03-02T06:59:32;22.83;;;12.80;;
10657;SDS011;5377;43.276;26.930;2024-03-02T07:01:59;16.77;;;10.30;;
10657;SDS011;5377;43.276;26.930;2024-03-02T07:04:26;18.37;;;10.63;;
10657;SDS011;5377;43.276;26.930;2024-03-02T07:06:53;17.20;;;9.52;;
10657;SDS011;5377;43.276;26.930;2024-03-02T07:09:20;15.38;;;8.88;;
10657;SDS011;5377;43.276;26.930;2024-03-02T07:11:49;14.80;;;9.13;;
10657;SDS011;5377;43.276;26.930;2024-03-02T07:14:15;16.35;;;9.10;;
10657;SDS011;5377;43.276;26.930;2024-03-02T07:16:42;19.38;;;10.88;;
10657;SDS011;5377;43.276;26.930;2024-03-02T07:19:08;15.95;;;11.05;;
10657;SDS011;5377;43.276;26.930;2024-03-02T07:21:34;14.73;;;8.98;;
10657;SDS011;5377;43.276;26.930;2024-03-02T07:24:01;15.30;;;9.45;;
10657;SDS011;5377;43.276;26.930;2024-03-02T07:26:28;15.07;;;9.45;;
10657;SDS011;5377;43.276;26.930;2024-03-02T07:28:56;17.95;;;9.05;;
10657;SDS011;5377;43.276;26.930;2024-03-02T07:31:23;22.63;;;10.40;;
10657;SDS011;5377;43.276;26.930;2024-03-02T07:33:49;14.73;;;9.80;;
10657;SDS011;5377;43.276;26.930;2024-03-02T07:36:16;21.75;;;10.20;;
10657;SDS011;5377;43.276;26.930;2024-03-02T07:38:44;24.88;;;14.38;;
10657;SDS011;5377;43.276;26.930;2024-03-02T07:41:11;31.13;;;14.18;;
10657;SDS011;5377;43.276;26.930;2024-03-02T07:43:37;23.27;;;12.93;;
10657;SDS011;5377;43.276;26.930;2024-03-02T07:46:05;16.75;;;9.40;;
10657;SDS011;5377;43.276;26.930;2024-03-02T07:48:32;15.30;;;10.18;;
10657;SDS011;5377;43.276;26.930;2024-03-02T07:50:58;25.52;;;10.43;;
10657;SDS011;5377;43.276;26.930;2024-03-02T07:53:25;16.63;;;8.02;;
10657;SDS011;5377;43.276;26.930;2024-03-02T07:55:52;14.35;;;8.90;;
10657;SDS011;5377;43.276;26.930;2024-03-02T07:58:18;14.30;;;8.63;;
10657;SDS011;5377;43.276;26.930;2024-03-02T08:00:45;18.73;;;8.40;;
10657;SDS011;5377;43.276;26.930;2024-03-02T08:03:13;14.57;;;7.32;;
10657;SDS011;5377;43.276;26.930;2024-03-02T08:05:40;17.02;;;7.63;;
10657;SDS011;5377;43.276;26.930;2024-03-02T08:08:06;14.25;;;7.22;;
10657;SDS011;5377;43.276;26.930;2024-03-02T08:10:33;13.82;;;7.82;;
10657;SDS011;5377;43.276;26.930;2024-03-02T08:12:59;13.77;;;7.80;;
10657;SDS011;5377;43.276;26.930;2024-03-02T08:15:26;19.45;;;8.77;;
10657;SDS011;5377;43.276;26.930;2024-03-02T08:17:52;22.95;;;8.95;;
10657;SDS011;5377;43.276;26.930;2024-03-02T08:20:20;19.35;;;8.68;;
10657;SDS011;5377;43.276;26.930;2024-03-02T08:22:47;20.95;;;8.50;;
10657;SDS011;5377;43.276;26.930;2024-03-02T08:25:13;15.25;;;8.45;;
10657;SDS011;5377;43.276;26.930;2024-03-02T08:27:41;12.40;;;7.10;;
10657;SDS011;5377;43.276;26.930;2024-03-02T08:30:07;14.38;;;7.32;;
10657;SDS011;5377;43.276;26.930;2024-03-02T08:32:35;7.82;;;6.72;;
10657;SDS011;5377;43.276;26.930;2024-03-02T08:35:03;16.83;;;7.60;;
10657;SDS011;5377;43.276;26.930;2024-03-02T08:37:31;18.85;;;8.77;;
10657;SDS011;5377;43.276;26.930;2024-03-02T08:39:57;12.10;;;7.95;;
10657;SDS011;5377;43.276;26.930;2024-03-02T08:42:24;12.80;;;7.05;;
10657;SDS011;5377;43.276;26.930;2024-03-02T08:44:50;13.70;;;7.78;;
10657;SDS011;5377;43.276;26.930;2024-03-02T08:47:17;17.77;;;9.05;;
10657;SDS011;5377;43.276;26.930;2024-03-02T08:49:43;15.05;;;7.45;;
10657;SDS011;5377;43.276;26.930;2024-03-02T08:52:10;20.70;;;9.60;;
10657;SDS011;5377;43.276;26.930;2024-03-02T08:54:38;16.25;;;9.23;;
10657;SDS011;5377;43.276;26.930;2024-03-02T08:57:04;18.40;;;8.50;;
10657;SDS011;5377;43.276;26.930;2024-03-02T08:59:32;16.90;;;8.20;;
10657;SDS011;5377;43.276;26.930;2024-03-02T09:01:58;13.68;;;8.15;;
10657;SDS011;5377;43.276;26.930;2024-03-02T09:04:25;15.45;;;7.40;;
10657;SDS011;5377;43.276;26.930;2024-03-02T09:06:51;14.18;;;7.55;;
10657;SDS011;5377;43.276;26.930;2024-03-02T09:09:18;13.23;;;6.72;;
10657;SDS011;5377;43.276;26.930;2024-03-02T09:11:46;14.43;;;6.38;;
10657;SDS011;5377;43.276;26.930;2024-03-02T09:14:13;15.10;;;6.35;;
10657;SDS011;5377;43.276;26.930;2024-03-02T09:16:41;9.85;;;5.40;;
10657;SDS011;5377;43.276;26.930;2024-03-02T09:19:07;13.93;;;5.97;;
10657;SDS011;5377;43.276;26.930;2024-03-02T09:21:34;13.15;;;6.95;;
10657;SDS011;5377;43.276;26.930;2024-03-02T09:24:01;10.80;;;6.30;;
10657;SDS011;5377;43.276;26.930;2024-03-02T09:26:28;15.45;;;6.03;;
10657;SDS011;5377;43.276;26.930;2024-03-02T09:28:56;11.13;;;5.65;;
10657;SDS011;5377;43.276;26.930;2024-03-02T09:31:23;11.85;;;6.10;;
10657;SDS011;5377;43.276;26.930;2024-03-02T09:33:50;15.00;;;6.72;;
10657;SDS011;5377;43.276;26.930;2024-03-02T09:36:16;12.95;;;6.57;;
10657;SDS011;5377;43.276;26.930;2024-03-02T09:38:43;12.52;;;5.93;;
10657;SDS011;5377;43.276;26.930;2024-03-02T09:41:10;16.17;;;6.80;;
10657;SDS011;5377;43.276;26.930;2024-03-02T09:43:36;9.15;;;5.43;;
10657;SDS011;5377;43.276;26.930;2024-03-02T09:46:04;13.70;;;6.15;;
10657;SDS011;5377;43.276;26.930;2024-03-02T09:48:31;13.07;;;6.32;;
10657;SDS011;5377;43.276;26.930;2024-03-02T09:50:58;7.97;;;5.15;;
10657;SDS011;5377;43.276;26.930;2024-03-02T09:53:25;11.23;;;5.63;;
10657;SDS011;5377;43.276;26.930;2024-03-02T09:55:53;16.10;;;6.85;;
10657;SDS011;5377;43.276;26.930;2024-03-02T09:58:20;12.75;;;5.97;;
10657;SDS011;5377;43.276;26.930;2024-03-02T10:00:46;11.45;;;4.85;;
10657;SDS011;5377;43.276;26.930;2024-03-02T10:03:14;9.75;;;4.75;;
10657;SDS011;5377;43.276;26.930;2024-03-02T10:05:41;11.43;;;4.80;;
10657;SDS011;5377;43.276;26.930;2024-03-02T10:08:08;11.60;;;5.63;;
10657;SDS011;5377;43.276;26.930;2024-03-02T10:10:35;11.65;;;5.20;;
10657;SDS011;5377;43.276;26.930;2024-03-02T10:13:05;13.25;;;6.18;;
10657;SDS011;5377;43.276;26.930;2024-03-02T10:15:32;9.52;;;5.47;;
10657;SDS011;5377;43.276;26.930;2024-03-02T10:17:58;11.85;;;6.00;;
10657;SDS011;5377;43.276;26.930;2024-03-02T10:20:26;10.60;;;6.07;;
10657;SDS011;5377;43.276;26.930;2024-03-02T10:22:54;15.00;;;5.13;;
10657;SDS011;5377;43.276;26.930;2024-03-02T10:25:30;9.02;;;5.70;;
10657;SDS011;5377;43.276;26.930;2024-03-02T10:27:57;14.50;;;5.00;;
10657;SDS011;5377;43.276;26.930;2024-03-02T10:30:24;13.27;;;7.15;;
10657;SDS011;5377;43.276;26.930;2024-03-02T10:32:52;9.48;;;5.10;;
10657;SDS011;5377;43.276;26.930;2024-03-02T10:35:19;13.20;;;5.55;;
10657;SDS011;5377;43.276;26.930;2024-03-02T10:37:48;8.32;;;5.35;;
10657;SDS011;5377;43.276;26.930;2024-03-02T10:40:14;5.95;;;4.07;;
10657;SDS011;5377;43.276;26.930;2024-03-02T10:42:41;8.48;;;4.10;;
10657;SDS011;5377;43.276;26.930;2024-03-02T10:45:08;11.68;;;5.18;;
10657;SDS011;5377;43.276;26.930;2024-03-02T10:47:35;10.48;;;4.85;;
10657;SDS011;5377;43.276;26.930;2024-03-02T10:50:02;12.93;;;5.10;;
10657;SDS011;5377;43.276;26.930;2024-03-02T10:52:33;7.82;;;4.15;;
10657;SDS011;5377;43.276;26.930;2024-03-02T10:55:01;11.82;;;5.00;;
10657;SDS011;5377;43.276;26.930;2024-03-02T10:57:31;16.10;;;6.03;;
10657;SDS011;5377;43.276;26.930;2024-03-02T11:00:01;6.63;;;4.15;;
10657;SDS011;5377;43.276;26.930;2024-03-02T11:02:28;13.98;;;4.70;;
10657;SDS011;5377;43.276;26.930;2024-03-02T11:04:56;9.27;;;5.38;;
10657;SDS011;5377;43.276;26.930;2024-03-02T11:07:26;14.05;;;5.70;;
10657;SDS011;5377;43.276;26.930;2024-03-02T11:09:54;16.30;;;5.38;;
10657;SDS011;5377;43.276;26.930;2024-03-02T11:12:26;10.75;;;4.85;;
10657;SDS011;5377;43.276;26.930;2024-03-02T11:14:54;11.25;;;4.95;;
10657;SDS011;5377;43.276;26.930;2024-03-02T11:17:21;10.70;;;5.22;;
10657;SDS011;5377;43.276;26.930;2024-03-02T11:19:49;14.77;;;7.30;;
10657;SDS011;5377;43.276;26.930;2024-03-02T11:22:16;11.68;;;5.03;;
10657;SDS011;5377;43.276;26.930;2024-03-02T11:24:47;9.45;;;4.90;;
10657;SDS011;5377;43.276;26.930;2024-03-02T11:27:14;6.55;;;5.20;;
10657;SDS011;5377;43.276;26.930;2024-03-02T11:29:46;10.77;;;6.55;;
10657;SDS011;5377;43.276;26.930;2024-03-02T11:32:16;11.57;;;6.03;;
10657;SDS011;5377;43.276;26.930;2024-03-02T11:34:43;9.52;;;5.38;;
10657;SDS011;5377;43.276;26.930;2024-03-02T11:37:11;11.82;;;5.50;;
10657;SDS011;5377;43.276;26.930;2024-03-02T11:39:38;11.00;;;5.22;;
10657;SDS011;5377;43.276;26.930;2024-03-02T11:42:06;13.05;;;6.07;;
10657;SDS011;5377;43.276;26.930;2024-03-02T11:44:33;13.55;;;6.35;;
10657;SDS011;5377;43.276;26.930;2024-03-02T11:47:01;6.53;;;5.75;;
10657;SDS011;5377;43.276;26.930;2024-03-02T11:49:36;8.70;;;5.45;;
10657;SDS011;5377;43.276;26.930;2024-03-02T11:52:03;13.38;;;7.68;;
10657;SDS011;5377;43.276;26.930;2024-03-02T11:54:31;23.77;;;11.88;;
10657;SDS011;5377;43.276;26.930;2024-03-02T11:56:59;17.70;;;9.02;;
10657;SDS011;5377;43.276;26.930;2024-03-02T11:59:27;10.25;;;6.97;;
10657;SDS011;5377;43.276;26.930;2024-03-02T12:01:54;8.65;;;6.30;;
10657;SDS011;5377;43.276;26.930;2024-03-02T12:04:22;11.55;;;7.05;;
10657;SDS011;5377;43.276;26.930;2024-03-02T12:06:53;11.68;;;6.25;;
10657;SDS011;5377;43.276;26.930;2024-03-02T12:09:20;10.85;;;7.53;;
10657;SDS011;5377;43.276;26.930;2024-03-02T12:11:47;10.60;;;6.70;;
10657;SDS011;5377;43.276;26.930;2024-03-02T12:14:13;8.95;;;5.43;;
10657;SDS011;5377;43.276;26.930;2024-03-02T12:16:43;9.70;;;5.80;;
10657;SDS011;5377;43.276;26.930;2024-03-02T12:19:10;11.05;;;5.90;;
10657;SDS011;5377;43.276;26.930;2024-03-02T12:21:37;9.00;;;5.90;;
10657;SDS011;5377;43.276;26.930;2024-03-02T12:24:04;11.65;;;7.10;;
10657;SDS011;5377;43.276;26.930;2024-03-02T12:26:31;12.90;;;5.97;;
10657;SDS011;5377;43.276;26.930;2024-03-02T12:28:58;7.47;;;6.18;;
10657;SDS011;5377;43.276;26.930;2024-03-02T12:31:24;9.77;;;5.45;;
10657;SDS011;5377;43.276;26.930;2024-03-02T12:33:51;16.92;;;6.32;;
10657;SDS011;5377;43.276;26.930;2024-03-02T12:36:17;8.30;;;5.50;;
10657;SDS011;5377;43.276;26.930;2024-03-02T12:38:46;7.60;;;4.90;;
10657;SDS011;5377;43.276;26.930;2024-03-02T12:41:14;10.02;;;4.53;;
10657;SDS011;5377;43.276;26.930;2024-03-02T12:43:41;10.95;;;4.93;;
10657;SDS011;5377;43.276;26.930;2024-03-02T12:46:07;7.72;;;4.35;;
10657;SDS011;5377;43.276;26.930;2024-03-02T12:48:34;6.68;;;4.97;;
10657;SDS011;5377;43.276;26.930;2024-03-02T12:51:01;14.00;;;5.57;;
10657;SDS011;5377;43.276;26.930;2024-03-02T12:53:27;9.70;;;5.18;;
10657;SDS011;5377;43.276;26.930;2024-03-02T12:55:56;11.60;;;5.53;;
10657;SDS011;5377;43.276;26.930;2024-03-02T12:58:23;7.10;;;4.53;;
10657;SDS011;5377;43.276;26.930;2024-03-02T13:00:49;11.65;;;4.95;;
10657;SDS011;5377;43.276;26.930;2024-03-02T13:03:17;10.48;;;5.40;;
10657;SDS011;5377;43.276;26.930;2024-03-02T13:05:48;8.65;;;5.07;;
10657;SDS011;5377;43.276;26.930;2024-03-02T13:08:14;12.60;;;6.38;;
10657;SDS011;5377;43.276;26.930;2024-03-02T13:10:41;13.50;;;5.97;;
10657;SDS011;5377;43.276;26.930;2024-03-02T13:13:09;6.85;;;4.63;;
10657;SDS011;5377;43.276;26.930;2024-03-02T13:15:35;8.00;;;5.07;;
10657;SDS011;5377;43.276;26.930;2024-03-02T13:18:02;10.35;;;4.80;;
10657;SDS011;5377;43.276;26.930;2024-03-02T13:20:30;6.60;;;4.38;;
10657;SDS011;5377;43.276;26.930;2024-03-02T13:22:56;8.48;;;4.53;;
10657;SDS011;5377;43.276;26.930;2024-03-02T13:25:23;11.27;;;5.28;;
10657;SDS011;5377;43.276;26.930;2024-03-02T13:27:49;9.82;;;4.50;;
10657;SDS011;5377;43.276;26.930;2024-03-02T13:30:17;12.15;;;4.82;;
10657;SDS011;5377;43.276;26.930;2024-03-02T13:32:44;10.38;;;5.35;;
10657;SDS011;5377;43.276;26.930;2024-03-02T13:35:10;5.70;;;4.55;;
10657;SDS011;5377;43.276;26.930;2024-03-02T13:37:37;7.38;;;4.85;;
10657;SDS011;5377;43.276;26.930;2024-03-02T13:40:04;10.30;;;5.00;;
10657;SDS011;5377;43.276;26.930;2024-03-02T13:42:31;8.45;;;4.20;;
10657;SDS011;5377;43.276;26.930;2024-03-02T13:44:57;8.90;;;4.93;;
10657;SDS011;5377;43.276;26.930;2024-03-02T13:47:25;9.43;;;4.53;;
10657;SDS011;5377;43.276;26.930;2024-03-02T13:49:52;6.97;;;4.13;;
10657;SDS011;5377;43.276;26.930;2024-03-02T13:52:19;7.10;;;5.28;;
10657;SDS011;5377;43.276;26.930;2024-03-02T13:54:45;15.95;;;9.48;;
10657;SDS011;5377;43.276;26.930;2024-03-02T13:57:12;8.32;;;4.90;;
10657;SDS011;5377;43.276;26.930;2024-03-02T13:59:40;8.27;;;6.00;;
10657;SDS011;5377;43.276;26.930;2024-03-02T14:02:06;12.32;;;6.05;;
10657;SDS011;5377;43.276;26.930;2024-03-02T14:04:35;11.48;;;5.43;;
10657;SDS011;5377;43.276;26.930;2024-03-02T14:07:01;11.48;;;6.05;;
10657;SDS011;5377;43.276;26.930;2024-03-02T14:09:28;13.75;;;5.72;;
10657;SDS011;5377;43.276;26.930;2024-03-02T14:11:55;11.57;;;7.68;;
10657;SDS011;5377;43.276;26.930;2024-03-02T14:14:22;9.40;;;6.45;;
10657;SDS011;5377;43.276;26.930;2024-03-02T14:16:49;12.57;;;8.02;;
10657;SDS011;5377;43.276;26.930;2024-03-02T14:19:16;9.65;;;5.20;;
10657;SDS011;5377;43.276;26.930;2024-03-02T14:21:43;7.82;;;5.93;;
10657;SDS011;5377;43.276;26.930;2024-03-02T14:24:10;11.35;;;6.05;;
10657;SDS011;5377;43.276;26.930;2024-03-02T14:26:37;11.57;;;7.13;;
10657;SDS011;5377;43.276;26.930;2024-03-02T14:29:03;8.32;;;5.95;;
10657;SDS011;5377;43.276;26.930;2024-03-02T14:31:30;10.90;;;6.15;;
10657;SDS011;5377;43.276;26.930;2024-03-02T14:33:57;11.32;;;5.10;;
10657;SDS011;5377;43.276;26.930;2024-03-02T14:36:24;9.90;;;5.60;;